sensor_id;sensor_type;location;lat;lon;timestamp;P1;durP1;ratioP1;P2;durP2;ratioP2
12550;SDS011;6341;51.434;6.792;2022-07-10T00:02:10;2.40;;;0.90;;
12550;SDS011;6341;51.434;6.792;2022-07-10T00:07:33;4.83;;;1.10;;
12550;SDS011;6341;51.434;6.792;2022-07-10T00:12:58;4.03;;;1.30;;
12550;SDS011;6341;51.434;6.792;2022-07-10T00:18:22;1.80;;;1.07;;
12550;SDS011;6341;51.434;6.792;2022-07-10T00:23:45;2.00;;;0.80;;
12550;SDS011;6341;51.434;6.792;2022-07-10T00:29:10;3.17;;;1.23;;
12550;SDS011;6341;51.434;6.792;2022-07-10T00:34:34;2.77;;;1.17;;
12550;SDS011;6341;51.434;6.792;2022-07-10T00:39:58;2.23;;;1.10;;
12550;SDS011;6341;51.434;6.792;2022-07-10T00:45:23;3.83;;;1.33;;
12550;SDS011;6341;51.434;6.792;2022-07-10T00:50:46;3.53;;;1.20;;
12550;SDS011;6341;51.434;6.792;2022-07-10T00:56:10;2.10;;;1.10;;
12550;SDS011;6341;51.434;6.792;2022-07-10T01:01:35;3.53;;;1.17;;
12550;SDS011;6341;51.434;6.792;2022-07-10T01:06:59;5.40;;;1.00;;
12550;SDS011;6341;51.434;6.792;2022-07-10T01:12:23;5.43;;;1.30;;
12550;SDS011;6341;51.434;6.792;2022-07-10T01:17:48;2.73;;;1.17;;
12550;SDS011;6341;51.434;6.792;2022-07-10T01:23:16;3.07;;;1.37;;
12550;SDS011;6341;51.434;6.792;2022-07-10T01:28:39;3.73;;;1.63;;
12550;SDS011;6341;51.434;6.792;2022-07-10T01:34:05;3.03;;;1.00;;
12550;SDS011;6341;51.434;6.792;2022-07-10T01:39:32;4.20;;;1.20;;
12550;SDS011;6341;51.434;6.792;2022-07-10T01:44:55;2.00;;;1.00;;
12550;SDS011;6341;51.434;6.792;2022-07-10T01:50:26;3.27;;;1.43;;
12550;SDS011;6341;51.434;6.792;2022-07-10T01:55:51;4.23;;;1.27;;
12550;SDS011;6341;51.434;6.792;2022-07-10T02:01:14;5.13;;;1.23;;
12550;SDS011;6341;51.434;6.792;2022-07-10T02:06:38;3.40;;;1.30;;
12550;SDS011;6341;51.434;6.792;2022-07-10T02:12:02;3.53;;;1.30;;
12550;SDS011;6341;51.434;6.792;2022-07-10T02:17:26;2.00;;;0.90;;
12550;SDS011;6341;51.434;6.792;2022-07-10T02:22:50;3.57;;;1.30;;
12550;SDS011;6341;51.434;6.792;2022-07-10T02:28:15;4.13;;;1.20;;
12550;SDS011;6341;51.434;6.792;2022-07-10T02:33:38;6.03;;;1.80;;
12550;SDS011;6341;51.434;6.792;2022-07-10T02:39:01;4.23;;;1.40;;
12550;SDS011;6341;51.434;6.792;2022-07-10T02:44:27;3.60;;;1.20;;
12550;SDS011;6341;51.434;6.792;2022-07-10T02:49:51;2.70;;;1.20;;
12550;SDS011;6341;51.434;6.792;2022-07-10T02:55:14;5.00;;;1.50;;
12550;SDS011;6341;51.434;6.792;2022-07-10T03:00:38;4.23;;;1.50;;
12550;SDS011;6341;51.434;6.792;2022-07-10T03:06:03;3.30;;;1.30;;
12550;SDS011;6341;51.434;6.792;2022-07-10T03:11:26;4.27;;;1.40;;
12550;SDS011;6341;51.434;6.792;2022-07-10T03:16:51;3.07;;;1.37;;
12550;SDS011;6341;51.434;6.792;2022-07-10T03:22:14;2.57;;;1.30;;
12550;SDS011;6341;51.434;6.792;2022-07-10T03:27:38;4.30;;;1.57;;
12550;SDS011;6341;51.434;6.792;2022-07-10T03:33:03;2.47;;;1.33;;
12550;SDS011;6341;51.434;6.792;2022-07-10T03:38:26;4.87;;;1.70;;
12550;SDS011;6341;51.434;6.792;2022-07-10T03:43:49;3.43;;;1.37;;
12550;SDS011;6341;51.434;6.792;2022-07-10T03:49:14;4.13;;;1.40;;
12550;SDS011;6341;51.434;6.792;2022-07-10T03:54:38;2.67;;;1.10;;
12550;SDS011;6341;51.434;6.792;2022-07-10T04:00:01;2.47;;;1.10;;
12550;SDS011;6341;51.434;6.792;2022-07-10T04:05:26;3.30;;;1.30;;
12550;SDS011;6341;51.434;6.792;2022-07-10T04:10:50;2.83;;;1.00;;
12550;SDS011;6341;51.434;6.792;2022-07-10T04:16:14;3.33;;;1.20;;
12550;SDS011;6341;51.434;6.792;2022-07-10T04:21:39;2.87;;;1.20;;
12550;SDS011;6341;51.434;6.792;2022-07-10T04:27:02;2.77;;;1.13;;
12550;SDS011;6341;51.434;6.792;2022-07-10T04:32:28;4.23;;;1.10;;
12550;SDS011;6341;51.434;6.792;2022-07-10T04:37:53;4.07;;;1.33;;
12550;SDS011;6341;51.434;6.792;2022-07-10T04:43:16;2.80;;;1.30;;
12550;SDS011;6341;51.434;6.792;2022-07-10T04:48:40;5.00;;;1.27;;
12550;SDS011;6341;51.434;6.792;2022-07-10T04:54:05;3.00;;;1.73;;
12550;SDS011;6341;51.434;6.792;2022-07-10T04:59:28;3.37;;;1.53;;
12550;SDS011;6341;51.434;6.792;2022-07-10T05:04:51;4.17;;;1.37;;
12550;SDS011;6341;51.434;6.792;2022-07-10T05:10:16;3.53;;;1.63;;
12550;SDS011;6341;51.434;6.792;2022-07-10T05:15:40;4.27;;;1.40;;
12550;SDS011;6341;51.434;6.792;2022-07-10T05:21:03;4.03;;;1.60;;
12550;SDS011;6341;51.434;6.792;2022-07-10T05:26:29;1.87;;;1.30;;
12550;SDS011;6341;51.434;6.792;2022-07-10T05:31:52;3.27;;;1.33;;
12550;SDS011;6341;51.434;6.792;2022-07-10T05:37:16;4.97;;;1.67;;
12550;SDS011;6341;51.434;6.792;2022-07-10T05:42:40;3.90;;;1.60;;
12550;SDS011;6341;51.434;6.792;2022-07-10T05:48:05;3.83;;;1.73;;
12550;SDS011;6341;51.434;6.792;2022-07-10T05:53:29;3.63;;;1.20;;
12550;SDS011;6341;51.434;6.792;2022-07-10T05:58:53;4.53;;;1.33;;
12550;SDS011;6341;51.434;6.792;2022-07-10T06:04:17;3.27;;;1.33;;
12550;SDS011;6341;51.434;6.792;2022-07-10T06:09:41;3.27;;;1.47;;
12550;SDS011;6341;51.434;6.792;2022-07-10T06:15:07;3.67;;;1.67;;
12550;SDS011;6341;51.434;6.792;2022-07-10T06:20:39;2.57;;;1.10;;
12550;SDS011;6341;51.434;6.792;2022-07-10T06:26:02;7.17;;;1.63;;
12550;SDS011;6341;51.434;6.792;2022-07-10T06:31:27;3.00;;;1.23;;
12550;SDS011;6341;51.434;6.792;2022-07-10T06:36:51;2.70;;;1.50;;
12550;SDS011;6341;51.434;6.792;2022-07-10T06:42:14;2.63;;;1.30;;
12550;SDS011;6341;51.434;6.792;2022-07-10T06:47:40;3.80;;;1.70;;
12550;SDS011;6341;51.434;6.792;2022-07-10T06:53:19;5.17;;;1.67;;
12550;SDS011;6341;51.434;6.792;2022-07-10T06:58:45;2.60;;;1.63;;
12550;SDS011;6341;51.434;6.792;2022-07-10T07:04:16;4.60;;;1.60;;
12550;SDS011;6341;51.434;6.792;2022-07-10T07:09:40;5.97;;;2.30;;
12550;SDS011;6341;51.434;6.792;2022-07-10T07:15:06;5.23;;;1.80;;
12550;SDS011;6341;51.434;6.792;2022-07-10T07:20:32;4.07;;;1.80;;
12550;SDS011;6341;51.434;6.792;2022-07-10T07:26:13;6.40;;;1.77;;
12550;SDS011;6341;51.434;6.792;2022-07-10T07:31:36;8.63;;;1.90;;
12550;SDS011;6341;51.434;6.792;2022-07-10T07:37:01;4.13;;;1.70;;
12550;SDS011;6341;51.434;6.792;2022-07-10T07:42:25;3.03;;;1.70;;
12550;SDS011;6341;51.434;6.792;2022-07-10T07:47:50;4.60;;;2.03;;
12550;SDS011;6341;51.434;6.792;2022-07-10T07:53:16;3.17;;;1.80;;
12550;SDS011;6341;51.434;6.792;2022-07-10T07:58:39;3.50;;;1.87;;
12550;SDS011;6341;51.434;6.792;2022-07-10T08:04:04;4.00;;;1.53;;
12550;SDS011;6341;51.434;6.792;2022-07-10T08:09:31;2.53;;;1.70;;
12550;SDS011;6341;51.434;6.792;2022-07-10T08:14:55;4.40;;;2.03;;
12550;SDS011;6341;51.434;6.792;2022-07-10T08:20:20;3.10;;;1.60;;
12550;SDS011;6341;51.434;6.792;2022-07-10T08:25:45;4.33;;;1.80;;
12550;SDS011;6341;51.434;6.792;2022-07-10T08:31:08;3.23;;;1.80;;
12550;SDS011;6341;51.434;6.792;2022-07-10T08:36:36;3.33;;;1.70;;
12550;SDS011;6341;51.434;6.792;2022-07-10T08:42:05;2.93;;;1.80;;
12550;SDS011;6341;51.434;6.792;2022-07-10T08:47:30;3.73;;;1.80;;
12550;SDS011;6341;51.434;6.792;2022-07-10T08:53:01;2.17;;;1.27;;
12550;SDS011;6341;51.434;6.792;2022-07-10T08:58:32;4.27;;;1.93;;
12550;SDS011;6341;51.434;6.792;2022-07-10T09:03:57;4.70;;;1.70;;
12550;SDS011;6341;51.434;6.792;2022-07-10T09:09:21;4.00;;;1.60;;
12550;SDS011;6341;51.434;6.792;2022-07-10T09:14:47;4.20;;;1.83;;
12550;SDS011;6341;51.434;6.792;2022-07-10T09:20:23;3.77;;;2.03;;
12550;SDS011;6341;51.434;6.792;2022-07-10T09:25:47;6.47;;;2.33;;
12550;SDS011;6341;51.434;6.792;2022-07-10T09:31:13;4.80;;;1.77;;
12550;SDS011;6341;51.434;6.792;2022-07-10T09:36:36;3.70;;;1.80;;
12550;SDS011;6341;51.434;6.792;2022-07-10T09:42:00;2.33;;;1.73;;
12550;SDS011;6341;51.434;6.792;2022-07-10T09:47:25;2.50;;;1.53;;
12550;SDS011;6341;51.434;6.792;2022-07-10T09:52:49;1.83;;;1.27;;
12550;SDS011;6341;51.434;6.792;2022-07-10T09:58:14;1.70;;;1.13;;
12550;SDS011;6341;51.434;6.792;2022-07-10T10:03:41;4.00;;;1.50;;
12550;SDS011;6341;51.434;6.792;2022-07-10T10:09:09;4.43;;;1.57;;
12550;SDS011;6341;51.434;6.792;2022-07-10T10:14:37;1.97;;;1.27;;
12550;SDS011;6341;51.434;6.792;2022-07-10T10:20:04;2.70;;;1.10;;
12550;SDS011;6341;51.434;6.792;2022-07-10T10:25:47;1.40;;;0.80;;
12550;SDS011;6341;51.434;6.792;2022-07-10T10:31:11;2.47;;;0.80;;
12550;SDS011;6341;51.434;6.792;2022-07-10T10:36:46;1.27;;;0.70;;
12550;SDS011;6341;51.434;6.792;2022-07-10T10:42:21;1.60;;;0.70;;
12550;SDS011;6341;51.434;6.792;2022-07-10T10:47:57;0.87;;;0.77;;
12550;SDS011;6341;51.434;6.792;2022-07-10T10:53:43;1.47;;;0.93;;
12550;SDS011;6341;51.434;6.792;2022-07-10T10:59:45;2.07;;;0.90;;
12550;SDS011;6341;51.434;6.792;2022-07-10T11:17:02;1.70;;;1.07;;
12550;SDS011;6341;51.434;6.792;2022-07-10T11:22:46;3.23;;;1.40;;
12550;SDS011;6341;51.434;6.792;2022-07-10T11:28:22;3.47;;;1.20;;
12550;SDS011;6341;51.434;6.792;2022-07-10T11:33:51;3.13;;;1.40;;
12550;SDS011;6341;51.434;6.792;2022-07-10T11:39:16;2.30;;;1.30;;
12550;SDS011;6341;51.434;6.792;2022-07-10T11:44:41;1.93;;;1.10;;
12550;SDS011;6341;51.434;6.792;2022-07-10T11:50:05;2.20;;;1.20;;
12550;SDS011;6341;51.434;6.792;2022-07-10T11:55:29;2.07;;;1.10;;
12550;SDS011;6341;51.434;6.792;2022-07-10T12:01:02;2.27;;;1.27;;
12550;SDS011;6341;51.434;6.792;2022-07-10T12:06:28;3.63;;;1.40;;
12550;SDS011;6341;51.434;6.792;2022-07-10T12:11:59;1.90;;;1.20;;
12550;SDS011;6341;51.434;6.792;2022-07-10T12:17:25;1.70;;;1.27;;
12550;SDS011;6341;51.434;6.792;2022-07-10T12:22:49;3.60;;;1.07;;
12550;SDS011;6341;51.434;6.792;2022-07-10T12:28:15;3.77;;;1.50;;
12550;SDS011;6341;51.434;6.792;2022-07-10T12:33:40;2.03;;;1.10;;
12550;SDS011;6341;51.434;6.792;2022-07-10T12:39:03;1.83;;;1.00;;
12550;SDS011;6341;51.434;6.792;2022-07-10T12:44:30;2.40;;;1.30;;
12550;SDS011;6341;51.434;6.792;2022-07-10T12:49:57;2.67;;;1.10;;
12550;SDS011;6341;51.434;6.792;2022-07-10T12:55:33;2.47;;;1.08;;
12550;SDS011;6341;51.434;6.792;2022-07-10T13:00:59;3.80;;;1.58;;
12550;SDS011;6341;51.434;6.792;2022-07-10T13:06:26;2.80;;;1.17;;
12550;SDS011;6341;51.434;6.792;2022-07-10T13:11:51;3.17;;;1.38;;
12550;SDS011;6341;51.434;6.792;2022-07-10T13:17:16;2.70;;;1.33;;
12550;SDS011;6341;51.434;6.792;2022-07-10T13:22:41;1.85;;;0.88;;
12550;SDS011;6341;51.434;6.792;2022-07-10T13:28:04;2.30;;;1.10;;
12550;SDS011;6341;51.434;6.792;2022-07-10T13:33:28;3.53;;;1.17;;
12550;SDS011;6341;51.434;6.792;2022-07-10T13:38:54;2.35;;;1.20;;
12550;SDS011;6341;51.434;6.792;2022-07-10T13:44:17;2.45;;;0.85;;
12550;SDS011;6341;51.434;6.792;2022-07-10T13:49:42;2.95;;;1.23;;
12550;SDS011;6341;51.434;6.792;2022-07-10T13:55:07;2.40;;;0.90;;
12550;SDS011;6341;51.434;6.792;2022-07-10T14:00:31;2.05;;;1.00;;
12550;SDS011;6341;51.434;6.792;2022-07-10T14:05:55;3.65;;;1.35;;
12550;SDS011;6341;51.434;6.792;2022-07-10T14:11:20;1.87;;;1.13;;
12550;SDS011;6341;51.434;6.792;2022-07-10T14:16:43;4.27;;;1.43;;
12550;SDS011;6341;51.434;6.792;2022-07-10T14:22:07;4.27;;;1.50;;
12550;SDS011;6341;51.434;6.792;2022-07-10T14:27:32;2.80;;;1.30;;
12550;SDS011;6341;51.434;6.792;2022-07-10T14:32:55;1.90;;;1.20;;
12550;SDS011;6341;51.434;6.792;2022-07-10T14:38:18;2.50;;;1.07;;
12550;SDS011;6341;51.434;6.792;2022-07-10T14:43:43;1.83;;;0.90;;
12550;SDS011;6341;51.434;6.792;2022-07-10T14:49:06;1.97;;;1.07;;
12550;SDS011;6341;51.434;6.792;2022-07-10T14:54:29;3.67;;;1.10;;
12550;SDS011;6341;51.434;6.792;2022-07-10T14:59:54;1.00;;;0.90;;
12550;SDS011;6341;51.434;6.792;2022-07-10T15:05:17;3.00;;;1.17;;
12550;SDS011;6341;51.434;6.792;2022-07-10T15:10:40;1.97;;;1.10;;
12550;SDS011;6341;51.434;6.792;2022-07-10T15:16:09;2.67;;;1.20;;
12550;SDS011;6341;51.434;6.792;2022-07-10T15:21:32;3.13;;;1.30;;
12550;SDS011;6341;51.434;6.792;2022-07-10T15:26:56;2.50;;;1.20;;
12550;SDS011;6341;51.434;6.792;2022-07-10T15:32:21;2.47;;;1.13;;
12550;SDS011;6341;51.434;6.792;2022-07-10T15:37:45;2.37;;;1.00;;
12550;SDS011;6341;51.434;6.792;2022-07-10T15:43:08;1.83;;;1.20;;
12550;SDS011;6341;51.434;6.792;2022-07-10T15:48:33;2.87;;;1.20;;
12550;SDS011;6341;51.434;6.792;2022-07-10T15:53:58;1.90;;;1.00;;
12550;SDS011;6341;51.434;6.792;2022-07-10T15:59:22;2.23;;;1.10;;
12550;SDS011;6341;51.434;6.792;2022-07-10T16:04:46;3.80;;;1.30;;
12550;SDS011;6341;51.434;6.792;2022-07-10T16:10:10;1.63;;;1.20;;
12550;SDS011;6341;51.434;6.792;2022-07-10T16:15:34;1.53;;;1.20;;
12550;SDS011;6341;51.434;6.792;2022-07-10T16:20:58;5.30;;;1.63;;
12550;SDS011;6341;51.434;6.792;2022-07-10T16:26:22;5.03;;;1.40;;
12550;SDS011;6341;51.434;6.792;2022-07-10T16:31:45;3.00;;;1.27;;
12550;SDS011;6341;51.434;6.792;2022-07-10T16:37:11;3.87;;;1.40;;
12550;SDS011;6341;51.434;6.792;2022-07-10T16:42:34;3.53;;;1.33;;
12550;SDS011;6341;51.434;6.792;2022-07-10T16:47:57;3.13;;;1.50;;
12550;SDS011;6341;51.434;6.792;2022-07-10T16:53:23;2.33;;;1.10;;
12550;SDS011;6341;51.434;6.792;2022-07-10T16:58:47;1.83;;;1.20;;
12550;SDS011;6341;51.434;6.792;2022-07-10T17:04:11;2.50;;;1.27;;
12550;SDS011;6341;51.434;6.792;2022-07-10T17:09:36;1.83;;;1.20;;
12550;SDS011;6341;51.434;6.792;2022-07-10T17:14:59;1.93;;;1.20;;
12550;SDS011;6341;51.434;6.792;2022-07-10T17:20:24;3.17;;;1.17;;
12550;SDS011;6341;51.434;6.792;2022-07-10T17:25:49;1.70;;;1.20;;
12550;SDS011;6341;51.434;6.792;2022-07-10T17:31:12;3.43;;;1.90;;
12550;SDS011;6341;51.434;6.792;2022-07-10T17:36:35;1.57;;;1.07;;
12550;SDS011;6341;51.434;6.792;2022-07-10T17:42:00;2.80;;;1.30;;
12550;SDS011;6341;51.434;6.792;2022-07-10T17:47:25;4.47;;;1.90;;
12550;SDS011;6341;51.434;6.792;2022-07-10T17:52:48;2.40;;;1.80;;
12550;SDS011;6341;51.434;6.792;2022-07-10T17:58:13;3.93;;;1.80;;
12550;SDS011;6341;51.434;6.792;2022-07-10T18:03:37;2.00;;;1.30;;
12550;SDS011;6341;51.434;6.792;2022-07-10T18:09:01;2.13;;;1.40;;
12550;SDS011;6341;51.434;6.792;2022-07-10T18:14:37;1.90;;;1.20;;
12550;SDS011;6341;51.434;6.792;2022-07-10T18:20:02;3.07;;;1.40;;
12550;SDS011;6341;51.434;6.792;2022-07-10T18:25:57;2.23;;;1.10;;
12550;SDS011;6341;51.434;6.792;2022-07-10T18:31:47;3.10;;;1.30;;
12550;SDS011;6341;51.434;6.792;2022-07-10T18:37:29;2.47;;;1.30;;
12550;SDS011;6341;51.434;6.792;2022-07-10T18:43:02;1.43;;;1.07;;
12550;SDS011;6341;51.434;6.792;2022-07-10T18:48:45;2.60;;;1.33;;
12550;SDS011;6341;51.434;6.792;2022-07-10T18:54:17;4.70;;;1.30;;
12550;SDS011;6341;51.434;6.792;2022-07-10T19:00:32;1.93;;;1.17;;
12550;SDS011;6341;51.434;6.792;2022-07-10T19:06:15;1.97;;;1.20;;
12550;SDS011;6341;51.434;6.792;2022-07-10T19:12:05;2.43;;;1.30;;
12550;SDS011;6341;51.434;6.792;2022-07-10T19:17:52;1.10;;;0.90;;
12550;SDS011;6341;51.434;6.792;2022-07-10T19:23:44;2.23;;;1.47;;
12550;SDS011;6341;51.434;6.792;2022-07-10T19:29:32;2.97;;;1.37;;
12550;SDS011;6341;51.434;6.792;2022-07-10T19:35:29;2.87;;;1.27;;
12550;SDS011;6341;51.434;6.792;2022-07-10T19:41:01;2.03;;;1.40;;
12550;SDS011;6341;51.434;6.792;2022-07-10T19:46:43;3.27;;;1.07;;
12550;SDS011;6341;51.434;6.792;2022-07-10T19:52:37;1.90;;;1.10;;
12550;SDS011;6341;51.434;6.792;2022-07-10T19:58:13;1.17;;;0.93;;
12550;SDS011;6341;51.434;6.792;2022-07-10T20:03:41;1.47;;;1.10;;
12550;SDS011;6341;51.434;6.792;2022-07-10T20:09:19;2.67;;;1.20;;
12550;SDS011;6341;51.434;6.792;2022-07-10T20:15:09;1.73;;;1.20;;
12550;SDS011;6341;51.434;6.792;2022-07-10T20:20:32;2.87;;;1.10;;
12550;SDS011;6341;51.434;6.792;2022-07-10T20:25:57;2.83;;;1.40;;
12550;SDS011;6341;51.434;6.792;2022-07-10T20:31:22;2.20;;;1.17;;
12550;SDS011;6341;51.434;6.792;2022-07-10T20:36:46;2.40;;;1.20;;
12550;SDS011;6341;51.434;6.792;2022-07-10T20:42:27;1.30;;;0.93;;
12550;SDS011;6341;51.434;6.792;2022-07-10T20:47:52;3.23;;;1.43;;
12550;SDS011;6341;51.434;6.792;2022-07-10T20:53:15;2.00;;;1.27;;
12550;SDS011;6341;51.434;6.792;2022-07-10T20:58:38;2.30;;;1.20;;
12550;SDS011;6341;51.434;6.792;2022-07-10T21:04:03;2.50;;;1.47;;
12550;SDS011;6341;51.434;6.792;2022-07-10T21:09:27;3.20;;;1.40;;
12550;SDS011;6341;51.434;6.792;2022-07-10T21:14:50;1.53;;;1.20;;
12550;SDS011;6341;51.434;6.792;2022-07-10T21:20:15;1.77;;;1.50;;
12550;SDS011;6341;51.434;6.792;2022-07-10T21:25:38;2.97;;;1.20;;
12550;SDS011;6341;51.434;6.792;2022-07-10T21:31:02;1.40;;;1.07;;
12550;SDS011;6341;51.434;6.792;2022-07-10T21:36:27;1.97;;;1.30;;
12550;SDS011;6341;51.434;6.792;2022-07-10T21:41:50;1.97;;;1.37;;
12550;SDS011;6341;51.434;6.792;2022-07-10T21:47:14;2.90;;;1.63;;
12550;SDS011;6341;51.434;6.792;2022-07-10T21:52:39;2.83;;;1.53;;
12550;SDS011;6341;51.434;6.792;2022-07-10T21:58:03;3.13;;;1.53;;
12550;SDS011;6341;51.434;6.792;2022-07-10T22:03:26;2.93;;;1.67;;
12550;SDS011;6341;51.434;6.792;2022-07-10T22:08:51;2.73;;;1.77;;
12550;SDS011;6341;51.434;6.792;2022-07-10T22:14:14;4.40;;;1.77;;
12550;SDS011;6341;51.434;6.792;2022-07-10T22:19:38;2.87;;;1.80;;
12550;SDS011;6341;51.434;6.792;2022-07-10T22:25:03;2.97;;;1.43;;
12550;SDS011;6341;51.434;6.792;2022-07-10T22:30:27;3.70;;;1.60;;
12550;SDS011;6341;51.434;6.792;2022-07-10T22:36:08;3.03;;;1.40;;
12550;SDS011;6341;51.434;6.792;2022-07-10T22:41:33;2.67;;;1.60;;
12550;SDS011;6341;51.434;6.792;2022-07-10T22:46:57;1.93;;;1.23;;
12550;SDS011;6341;51.434;6.792;2022-07-10T22:52:21;2.60;;;1.33;;
12550;SDS011;6341;51.434;6.792;2022-07-10T22:57:46;5.10;;;1.97;;
12550;SDS011;6341;51.434;6.792;2022-07-10T23:03:09;3.47;;;1.63;;
12550;SDS011;6341;51.434;6.792;2022-07-10T23:08:34;4.27;;;1.80;;
12550;SDS011;6341;51.434;6.792;2022-07-10T23:13:59;2.40;;;1.50;;
12550;SDS011;6341;51.434;6.792;2022-07-10T23:19:23;4.07;;;1.50;;
12550;SDS011;6341;51.434;6.792;2022-07-10T23:24:47;2.43;;;1.57;;
12550;SDS011;6341;51.434;6.792;2022-07-10T23:30:19;5.10;;;1.97;;
12550;SDS011;6341;51.434;6.792;2022-07-10T23:35:43;3.97;;;1.90;;
12550;SDS011;6341;51.434;6.792;2022-07-10T23:41:06;3.23;;;1.77;;
12550;SDS011;6341;51.434;6.792;2022-07-10T23:46:31;4.63;;;2.30;;
12550;SDS011;6341;51.434;6.792;2022-07-10T23:51:55;2.20;;;1.47;;
12550;SDS011;6341;51.434;6.792;2022-07-10T23:57:20;3.93;;;1.90;;
